sensor_id;sensor_type;location;lat;lon;timestamp;P1;durP1;ratioP1;P2;durP2;ratioP2
69956;SDS011;57283;54.816;9.482;2023-06-14T00:01:13;4.20;;;1.92;;
69956;SDS011;57283;54.816;9.482;2023-06-14T00:03:41;3.70;;;1.50;;
69956;SDS011;57283;54.816;9.482;2023-06-14T00:06:09;4.50;;;1.63;;
69956;SDS011;57283;54.816;9.482;2023-06-14T00:08:37;6.70;;;2.15;;
69956;SDS011;57283;54.816;9.482;2023-06-14T00:11:06;3.33;;;1.60;;
69956;SDS011;57283;54.816;9.482;2023-06-14T00:13:35;4.35;;;1.80;;
69956;SDS011;57283;54.816;9.482;2023-06-14T00:16:02;5.40;;;1.88;;
69956;SDS011;57283;54.816;9.482;2023-06-14T00:18:30;4.68;;;1.60;;
69956;SDS011;57283;54.816;9.482;2023-06-14T00:20:58;3.83;;;1.45;;
69956;SDS011;57283;54.816;9.482;2023-06-14T00:23:25;3.60;;;1.60;;
69956;SDS011;57283;54.816;9.482;2023-06-14T00:25:53;4.88;;;1.67;;
69956;SDS011;57283;54.816;9.482;2023-06-14T00:28:21;3.97;;;1.70;;
69956;SDS011;57283;54.816;9.482;2023-06-14T00:30:50;6.40;;;1.73;;
69956;SDS011;57283;54.816;9.482;2023-06-14T00:33:17;4.90;;;1.70;;
69956;SDS011;57283;54.816;9.482;2023-06-14T00:35:45;4.87;;;1.60;;
69956;SDS011;57283;54.816;9.482;2023-06-14T00:38:13;3.80;;;1.70;;
69956;SDS011;57283;54.816;9.482;2023-06-14T00:40:40;3.88;;;1.67;;
69956;SDS011;57283;54.816;9.482;2023-06-14T00:43:08;6.22;;;1.70;;
69956;SDS011;57283;54.816;9.482;2023-06-14T00:45:36;5.15;;;1.50;;
69956;SDS011;57283;54.816;9.482;2023-06-14T00:48:05;5.37;;;1.70;;
69956;SDS011;57283;54.816;9.482;2023-06-14T00:50:33;5.22;;;1.60;;
69956;SDS011;57283;54.816;9.482;2023-06-14T00:53:01;4.68;;;1.85;;
69956;SDS011;57283;54.816;9.482;2023-06-14T00:55:29;4.55;;;1.80;;
69956;SDS011;57283;54.816;9.482;2023-06-14T00:57:59;6.68;;;1.77;;
69956;SDS011;57283;54.816;9.482;2023-06-14T01:00:26;4.33;;;1.80;;
69956;SDS011;57283;54.816;9.482;2023-06-14T01:02:54;5.15;;;1.85;;
69956;SDS011;57283;54.816;9.482;2023-06-14T01:05:24;3.60;;;1.80;;
69956;SDS011;57283;54.816;9.482;2023-06-14T01:07:56;5.00;;;1.73;;
69956;SDS011;57283;54.816;9.482;2023-06-14T01:10:31;5.10;;;1.73;;
69956;SDS011;57283;54.816;9.482;2023-06-14T01:13:05;4.30;;;1.67;;
69956;SDS011;57283;54.816;9.482;2023-06-14T01:15:34;7.15;;;1.80;;
69956;SDS011;57283;54.816;9.482;2023-06-14T01:18:03;5.00;;;1.77;;
69956;SDS011;57283;54.816;9.482;2023-06-14T01:20:33;6.35;;;1.92;;
69956;SDS011;57283;54.816;9.482;2023-06-14T01:23:04;4.15;;;1.65;;
69956;SDS011;57283;54.816;9.482;2023-06-14T01:25:32;4.30;;;2.10;;
69956;SDS011;57283;54.816;9.482;2023-06-14T01:28:02;4.45;;;2.10;;
69956;SDS011;57283;54.816;9.482;2023-06-14T01:30:30;6.68;;;2.10;;
69956;SDS011;57283;54.816;9.482;2023-06-14T01:32:59;6.20;;;1.83;;
69956;SDS011;57283;54.816;9.482;2023-06-14T01:35:27;5.70;;;2.05;;
69956;SDS011;57283;54.816;9.482;2023-06-14T01:37:55;4.60;;;1.93;;
69956;SDS011;57283;54.816;9.482;2023-06-14T01:40:25;4.57;;;1.95;;
69956;SDS011;57283;54.816;9.482;2023-06-14T01:42:53;6.40;;;2.05;;
69956;SDS011;57283;54.816;9.482;2023-06-14T01:45:21;4.68;;;1.90;;
69956;SDS011;57283;54.816;9.482;2023-06-14T01:47:49;5.25;;;2.10;;
69956;SDS011;57283;54.816;9.482;2023-06-14T01:50:18;6.13;;;2.30;;
69956;SDS011;57283;54.816;9.482;2023-06-14T01:52:46;5.45;;;2.50;;
69956;SDS011;57283;54.816;9.482;2023-06-14T01:55:14;6.20;;;2.28;;
69956;SDS011;57283;54.816;9.482;2023-06-14T01:57:43;4.63;;;2.40;;
69956;SDS011;57283;54.816;9.482;2023-06-14T02:00:11;4.32;;;1.80;;
69956;SDS011;57283;54.816;9.482;2023-06-14T02:02:41;5.53;;;2.20;;
69956;SDS011;57283;54.816;9.482;2023-06-14T02:05:09;4.68;;;2.10;;
69956;SDS011;57283;54.816;9.482;2023-06-14T02:07:36;4.97;;;2.05;;
69956;SDS011;57283;54.816;9.482;2023-06-14T02:10:04;4.97;;;2.20;;
69956;SDS011;57283;54.816;9.482;2023-06-14T02:12:32;5.20;;;2.45;;
69956;SDS011;57283;54.816;9.482;2023-06-14T02:15:01;5.93;;;2.23;;
69956;SDS011;57283;54.816;9.482;2023-06-14T02:17:30;7.45;;;2.20;;
69956;SDS011;57283;54.816;9.482;2023-06-14T02:19:57;5.00;;;2.40;;
69956;SDS011;57283;54.816;9.482;2023-06-14T02:22:25;6.95;;;2.33;;
69956;SDS011;57283;54.816;9.482;2023-06-14T02:24:52;5.25;;;2.50;;
69956;SDS011;57283;54.816;9.482;2023-06-14T02:27:28;6.03;;;2.90;;
69956;SDS011;57283;54.816;9.482;2023-06-14T02:29:55;6.25;;;2.83;;
69956;SDS011;57283;54.816;9.482;2023-06-14T02:32:24;10.82;;;2.78;;
69956;SDS011;57283;54.816;9.482;2023-06-14T02:34:53;6.57;;;2.80;;
69956;SDS011;57283;54.816;9.482;2023-06-14T02:37:20;6.22;;;2.58;;
69956;SDS011;57283;54.816;9.482;2023-06-14T02:39:48;8.80;;;2.20;;
69956;SDS011;57283;54.816;9.482;2023-06-14T02:42:16;4.70;;;2.45;;
69956;SDS011;57283;54.816;9.482;2023-06-14T02:44:43;7.75;;;2.75;;
69956;SDS011;57283;54.816;9.482;2023-06-14T02:47:12;5.63;;;3.00;;
69956;SDS011;57283;54.816;9.482;2023-06-14T02:49:41;6.70;;;2.42;;
69956;SDS011;57283;54.816;9.482;2023-06-14T02:52:09;5.83;;;2.60;;
69956;SDS011;57283;54.816;9.482;2023-06-14T02:54:37;5.18;;;2.60;;
69956;SDS011;57283;54.816;9.482;2023-06-14T02:57:05;5.90;;;2.78;;
69956;SDS011;57283;54.816;9.482;2023-06-14T02:59:33;6.20;;;2.80;;
69956;SDS011;57283;54.816;9.482;2023-06-14T03:02:01;7.05;;;2.83;;
69956;SDS011;57283;54.816;9.482;2023-06-14T03:04:29;6.37;;;2.67;;
69956;SDS011;57283;54.816;9.482;2023-06-14T03:07:02;5.65;;;2.92;;
69956;SDS011;57283;54.816;9.482;2023-06-14T03:09:35;6.18;;;2.90;;
69956;SDS011;57283;54.816;9.482;2023-06-14T03:12:03;5.38;;;3.03;;
69956;SDS011;57283;54.816;9.482;2023-06-14T03:14:32;7.13;;;3.08;;
69956;SDS011;57283;54.816;9.482;2023-06-14T03:17:01;5.13;;;2.80;;
69956;SDS011;57283;54.816;9.482;2023-06-14T03:19:29;5.97;;;2.90;;
69956;SDS011;57283;54.816;9.482;2023-06-14T03:21:56;6.75;;;2.90;;
69956;SDS011;57283;54.816;9.482;2023-06-14T03:24:25;5.20;;;2.90;;
69956;SDS011;57283;54.816;9.482;2023-06-14T03:26:55;6.97;;;2.70;;
69956;SDS011;57283;54.816;9.482;2023-06-14T03:29:23;6.47;;;2.93;;
69956;SDS011;57283;54.816;9.482;2023-06-14T03:31:57;6.80;;;2.95;;
69956;SDS011;57283;54.816;9.482;2023-06-14T03:34:25;5.63;;;2.65;;
69956;SDS011;57283;54.816;9.482;2023-06-14T03:36:53;6.32;;;2.70;;
69956;SDS011;57283;54.816;9.482;2023-06-14T03:39:20;6.82;;;3.22;;
69956;SDS011;57283;54.816;9.482;2023-06-14T03:41:49;6.97;;;2.83;;
69956;SDS011;57283;54.816;9.482;2023-06-14T03:44:17;5.80;;;2.90;;
69956;SDS011;57283;54.816;9.482;2023-06-14T03:46:45;6.75;;;3.10;;
69956;SDS011;57283;54.816;9.482;2023-06-14T03:49:13;7.05;;;2.90;;
69956;SDS011;57283;54.816;9.482;2023-06-14T03:51:42;5.57;;;3.05;;
69956;SDS011;57283;54.816;9.482;2023-06-14T03:54:10;5.80;;;3.00;;
69956;SDS011;57283;54.816;9.482;2023-06-14T03:56:59;6.40;;;3.03;;
69956;SDS011;57283;54.816;9.482;2023-06-14T03:59:26;7.70;;;3.00;;
69956;SDS011;57283;54.816;9.482;2023-06-14T04:01:54;7.22;;;3.05;;
69956;SDS011;57283;54.816;9.482;2023-06-14T04:04:22;7.43;;;2.80;;
69956;SDS011;57283;54.816;9.482;2023-06-14T04:06:56;6.93;;;3.10;;
69956;SDS011;57283;54.816;9.482;2023-06-14T04:09:24;6.70;;;2.90;;
69956;SDS011;57283;54.816;9.482;2023-06-14T04:11:52;5.75;;;2.83;;
69956;SDS011;57283;54.816;9.482;2023-06-14T04:14:22;7.72;;;3.72;;
69956;SDS011;57283;54.816;9.482;2023-06-14T04:16:50;9.68;;;3.90;;
69956;SDS011;57283;54.816;9.482;2023-06-14T04:19:17;8.50;;;3.77;;
69956;SDS011;57283;54.816;9.482;2023-06-14T04:21:45;6.80;;;2.90;;
69956;SDS011;57283;54.816;9.482;2023-06-14T04:24:13;7.07;;;3.50;;
69956;SDS011;57283;54.816;9.482;2023-06-14T04:26:41;5.78;;;2.90;;
69956;SDS011;57283;54.816;9.482;2023-06-14T04:29:11;6.28;;;2.78;;
69956;SDS011;57283;54.816;9.482;2023-06-14T04:31:41;6.33;;;3.07;;
69956;SDS011;57283;54.816;9.482;2023-06-14T04:34:10;7.50;;;2.90;;
69956;SDS011;57283;54.816;9.482;2023-06-14T04:36:42;6.72;;;2.90;;
69956;SDS011;57283;54.816;9.482;2023-06-14T04:39:15;5.90;;;3.10;;
69956;SDS011;57283;54.816;9.482;2023-06-14T04:41:44;6.38;;;2.95;;
69956;SDS011;57283;54.816;9.482;2023-06-14T04:44:13;7.33;;;3.03;;
69956;SDS011;57283;54.816;9.482;2023-06-14T04:46:44;5.18;;;2.75;;
69956;SDS011;57283;54.816;9.482;2023-06-14T04:49:13;5.45;;;2.65;;
69956;SDS011;57283;54.816;9.482;2023-06-14T04:51:42;6.63;;;2.97;;
69956;SDS011;57283;54.816;9.482;2023-06-14T04:54:10;7.35;;;2.60;;
69956;SDS011;57283;54.816;9.482;2023-06-14T04:56:40;6.30;;;2.97;;
69956;SDS011;57283;54.816;9.482;2023-06-14T04:59:08;5.40;;;2.78;;
69956;SDS011;57283;54.816;9.482;2023-06-14T05:01:37;6.57;;;2.90;;
69956;SDS011;57283;54.816;9.482;2023-06-14T05:04:07;5.32;;;2.78;;
69956;SDS011;57283;54.816;9.482;2023-06-14T05:06:34;6.57;;;3.08;;
69956;SDS011;57283;54.816;9.482;2023-06-14T05:09:02;5.63;;;2.87;;
69956;SDS011;57283;54.816;9.482;2023-06-14T05:11:30;5.85;;;2.90;;
69956;SDS011;57283;54.816;9.482;2023-06-14T05:13:58;6.30;;;2.70;;
69956;SDS011;57283;54.816;9.482;2023-06-14T05:16:25;5.35;;;3.10;;
69956;SDS011;57283;54.816;9.482;2023-06-14T05:18:55;4.60;;;3.00;;
69956;SDS011;57283;54.816;9.482;2023-06-14T05:21:25;5.43;;;3.00;;
69956;SDS011;57283;54.816;9.482;2023-06-14T05:23:52;5.60;;;2.97;;
69956;SDS011;57283;54.816;9.482;2023-06-14T05:26:20;5.15;;;3.03;;
69956;SDS011;57283;54.816;9.482;2023-06-14T05:28:49;5.88;;;3.05;;
69956;SDS011;57283;54.816;9.482;2023-06-14T05:31:19;4.68;;;3.20;;
69956;SDS011;57283;54.816;9.482;2023-06-14T05:33:46;6.50;;;2.83;;
69956;SDS011;57283;54.816;9.482;2023-06-14T05:36:14;5.93;;;3.35;;
69956;SDS011;57283;54.816;9.482;2023-06-14T05:38:44;6.85;;;3.30;;
69956;SDS011;57283;54.816;9.482;2023-06-14T05:41:12;5.53;;;3.38;;
69956;SDS011;57283;54.816;9.482;2023-06-14T05:43:40;6.68;;;3.30;;
69956;SDS011;57283;54.816;9.482;2023-06-14T05:46:07;5.13;;;3.00;;
69956;SDS011;57283;54.816;9.482;2023-06-14T05:48:35;5.65;;;3.28;;
69956;SDS011;57283;54.816;9.482;2023-06-14T05:51:03;5.15;;;2.90;;
69956;SDS011;57283;54.816;9.482;2023-06-14T05:53:35;5.70;;;2.80;;
69956;SDS011;57283;54.816;9.482;2023-06-14T05:56:04;7.05;;;2.95;;
69956;SDS011;57283;54.816;9.482;2023-06-14T05:58:32;6.83;;;3.33;;
69956;SDS011;57283;54.816;9.482;2023-06-14T06:00:59;7.20;;;3.38;;
69956;SDS011;57283;54.816;9.482;2023-06-14T06:03:27;5.22;;;2.85;;
69956;SDS011;57283;54.816;9.482;2023-06-14T06:05:55;6.78;;;2.97;;
69956;SDS011;57283;54.816;9.482;2023-06-14T06:08:23;7.32;;;3.33;;
69956;SDS011;57283;54.816;9.482;2023-06-14T06:10:51;4.83;;;2.93;;
69956;SDS011;57283;54.816;9.482;2023-06-14T06:13:20;5.53;;;3.10;;
69956;SDS011;57283;54.816;9.482;2023-06-14T06:15:47;5.32;;;3.22;;
69956;SDS011;57283;54.816;9.482;2023-06-14T06:18:15;4.85;;;2.90;;
69956;SDS011;57283;54.816;9.482;2023-06-14T06:20:43;5.18;;;3.20;;
69956;SDS011;57283;54.816;9.482;2023-06-14T06:23:13;6.13;;;2.93;;
69956;SDS011;57283;54.816;9.482;2023-06-14T06:25:42;5.88;;;2.83;;
69956;SDS011;57283;54.816;9.482;2023-06-14T06:28:09;5.65;;;2.72;;
69956;SDS011;57283;54.816;9.482;2023-06-14T06:30:38;5.88;;;3.10;;
69956;SDS011;57283;54.816;9.482;2023-06-14T06:33:06;4.93;;;2.72;;
69956;SDS011;57283;54.816;9.482;2023-06-14T06:35:34;5.37;;;3.20;;
69956;SDS011;57283;54.816;9.482;2023-06-14T06:38:01;5.80;;;3.25;;
69956;SDS011;57283;54.816;9.482;2023-06-14T06:40:29;5.03;;;3.10;;
69956;SDS011;57283;54.816;9.482;2023-06-14T06:42:57;5.03;;;3.30;;
69956;SDS011;57283;54.816;9.482;2023-06-14T06:45:24;8.73;;;3.40;;
69956;SDS011;57283;54.816;9.482;2023-06-14T06:47:53;5.03;;;3.33;;
69956;SDS011;57283;54.816;9.482;2023-06-14T06:50:22;4.47;;;2.80;;
69956;SDS011;57283;54.816;9.482;2023-06-14T06:52:51;6.53;;;3.13;;
69956;SDS011;57283;54.816;9.482;2023-06-14T06:55:19;5.25;;;3.38;;
69956;SDS011;57283;54.816;9.482;2023-06-14T06:57:46;5.65;;;3.30;;
69956;SDS011;57283;54.816;9.482;2023-06-14T07:00:16;6.13;;;2.80;;
69956;SDS011;57283;54.816;9.482;2023-06-14T07:02:44;5.30;;;2.97;;
69956;SDS011;57283;54.816;9.482;2023-06-14T07:05:13;5.13;;;3.40;;
69956;SDS011;57283;54.816;9.482;2023-06-14T07:07:42;5.55;;;2.95;;
69956;SDS011;57283;54.816;9.482;2023-06-14T07:10:09;5.65;;;3.33;;
69956;SDS011;57283;54.816;9.482;2023-06-14T07:12:37;5.47;;;3.03;;
69956;SDS011;57283;54.816;9.482;2023-06-14T07:15:06;5.22;;;3.33;;
69956;SDS011;57283;54.816;9.482;2023-06-14T07:17:35;5.65;;;3.30;;
69956;SDS011;57283;54.816;9.482;2023-06-14T07:20:03;5.30;;;3.13;;
69956;SDS011;57283;54.816;9.482;2023-06-14T07:22:36;6.80;;;3.20;;
69956;SDS011;57283;54.816;9.482;2023-06-14T07:25:03;5.10;;;3.10;;
69956;SDS011;57283;54.816;9.482;2023-06-14T07:27:31;8.33;;;3.30;;
69956;SDS011;57283;54.816;9.482;2023-06-14T07:29:59;7.32;;;3.50;;
69956;SDS011;57283;54.816;9.482;2023-06-14T07:32:26;5.50;;;3.50;;
69956;SDS011;57283;54.816;9.482;2023-06-14T07:34:54;5.38;;;3.30;;
69956;SDS011;57283;54.816;9.482;2023-06-14T07:37:22;5.20;;;3.45;;
69956;SDS011;57283;54.816;9.482;2023-06-14T07:39:51;5.90;;;3.40;;
69956;SDS011;57283;54.816;9.482;2023-06-14T07:42:18;7.18;;;3.70;;
69956;SDS011;57283;54.816;9.482;2023-06-14T07:44:46;5.53;;;3.53;;
69956;SDS011;57283;54.816;9.482;2023-06-14T07:47:13;5.93;;;3.50;;
69956;SDS011;57283;54.816;9.482;2023-06-14T07:49:41;5.25;;;3.38;;
69956;SDS011;57283;54.816;9.482;2023-06-14T07:52:09;5.83;;;3.33;;
69956;SDS011;57283;54.816;9.482;2023-06-14T07:54:37;4.97;;;3.30;;
69956;SDS011;57283;54.816;9.482;2023-06-14T07:57:06;7.32;;;3.53;;
69956;SDS011;57283;54.816;9.482;2023-06-14T07:59:35;6.07;;;3.45;;
69956;SDS011;57283;54.816;9.482;2023-06-14T08:02:02;5.00;;;4.00;;
69956;SDS011;57283;54.816;9.482;2023-06-14T08:04:31;5.75;;;3.50;;
69956;SDS011;57283;54.816;9.482;2023-06-14T08:06:58;5.95;;;3.30;;
69956;SDS011;57283;54.816;9.482;2023-06-14T08:09:27;6.90;;;3.53;;
69956;SDS011;57283;54.816;9.482;2023-06-14T08:11:56;6.30;;;3.60;;
69956;SDS011;57283;54.816;9.482;2023-06-14T08:14:25;6.18;;;3.90;;
69956;SDS011;57283;54.816;9.482;2023-06-14T08:16:52;4.97;;;3.70;;
69956;SDS011;57283;54.816;9.482;2023-06-14T08:19:20;5.60;;;3.60;;
69956;SDS011;57283;54.816;9.482;2023-06-14T08:21:47;4.90;;;3.72;;
69956;SDS011;57283;54.816;9.482;2023-06-14T08:24:15;7.43;;;3.83;;
69956;SDS011;57283;54.816;9.482;2023-06-14T08:26:45;5.73;;;3.50;;
69956;SDS011;57283;54.816;9.482;2023-06-14T08:29:12;5.55;;;3.42;;
69956;SDS011;57283;54.816;9.482;2023-06-14T08:31:41;6.45;;;3.80;;
69956;SDS011;57283;54.816;9.482;2023-06-14T08:34:09;6.90;;;4.00;;
69956;SDS011;57283;54.816;9.482;2023-06-14T08:36:37;5.20;;;3.78;;
69956;SDS011;57283;54.816;9.482;2023-06-14T08:39:04;6.13;;;3.95;;
69956;SDS011;57283;54.816;9.482;2023-06-14T08:41:32;7.20;;;3.80;;
69956;SDS011;57283;54.816;9.482;2023-06-14T08:44:00;5.80;;;3.53;;
69956;SDS011;57283;54.816;9.482;2023-06-14T08:46:27;4.90;;;3.90;;
69956;SDS011;57283;54.816;9.482;2023-06-14T08:49:00;5.70;;;3.80;;
69956;SDS011;57283;54.816;9.482;2023-06-14T08:51:28;6.05;;;3.95;;
69956;SDS011;57283;54.816;9.482;2023-06-14T08:54:00;5.63;;;4.85;;
69956;SDS011;57283;54.816;9.482;2023-06-14T08:56:30;6.15;;;3.80;;
69956;SDS011;57283;54.816;9.482;2023-06-14T08:59:00;5.15;;;3.95;;
69956;SDS011;57283;54.816;9.482;2023-06-14T09:01:30;6.03;;;4.15;;
69956;SDS011;57283;54.816;9.482;2023-06-14T09:03:58;5.00;;;4.50;;
69956;SDS011;57283;54.816;9.482;2023-06-14T09:06:27;5.88;;;4.30;;
69956;SDS011;57283;54.816;9.482;2023-06-14T09:08:55;6.43;;;4.03;;
69956;SDS011;57283;54.816;9.482;2023-06-14T09:11:23;5.27;;;4.00;;
69956;SDS011;57283;54.816;9.482;2023-06-14T09:13:52;7.53;;;4.20;;
69956;SDS011;57283;54.816;9.482;2023-06-14T09:16:20;6.20;;;4.20;;
69956;SDS011;57283;54.816;9.482;2023-06-14T09:18:48;6.53;;;4.82;;
69956;SDS011;57283;54.816;9.482;2023-06-14T09:21:16;7.75;;;4.28;;
69956;SDS011;57283;54.816;9.482;2023-06-14T09:23:46;5.10;;;4.00;;
69956;SDS011;57283;54.816;9.482;2023-06-14T09:26:14;7.80;;;4.45;;
69956;SDS011;57283;54.816;9.482;2023-06-14T09:28:42;7.13;;;4.32;;
69956;SDS011;57283;54.816;9.482;2023-06-14T09:31:10;5.53;;;4.57;;
69956;SDS011;57283;54.816;9.482;2023-06-14T09:33:38;4.80;;;4.00;;
69956;SDS011;57283;54.816;9.482;2023-06-14T09:36:10;5.90;;;4.13;;
69956;SDS011;57283;54.816;9.482;2023-06-14T09:38:39;5.78;;;4.68;;
69956;SDS011;57283;54.816;9.482;2023-06-14T09:41:08;6.68;;;4.82;;
69956;SDS011;57283;54.816;9.482;2023-06-14T09:43:36;6.50;;;4.40;;
69956;SDS011;57283;54.816;9.482;2023-06-14T09:46:03;5.55;;;4.38;;
69956;SDS011;57283;54.816;9.482;2023-06-14T09:48:32;6.32;;;4.35;;
69956;SDS011;57283;54.816;9.482;2023-06-14T09:51:00;5.85;;;4.00;;
69956;SDS011;57283;54.816;9.482;2023-06-14T09:53:30;6.15;;;4.18;;
69956;SDS011;57283;54.816;9.482;2023-06-14T09:55:59;6.78;;;4.38;;
69956;SDS011;57283;54.816;9.482;2023-06-14T09:58:29;6.63;;;4.50;;
69956;SDS011;57283;54.816;9.482;2023-06-14T10:00:57;4.70;;;3.80;;
69956;SDS011;57283;54.816;9.482;2023-06-14T10:03:28;7.20;;;4.45;;
69956;SDS011;57283;54.816;9.482;2023-06-14T10:06:15;5.82;;;4.45;;
69956;SDS011;57283;54.816;9.482;2023-06-14T10:08:43;6.05;;;3.97;;
69956;SDS011;57283;54.816;9.482;2023-06-14T10:11:12;5.93;;;4.35;;
69956;SDS011;57283;54.816;9.482;2023-06-14T10:13:41;5.22;;;3.80;;
69956;SDS011;57283;54.816;9.482;2023-06-14T10:16:10;6.93;;;4.00;;
69956;SDS011;57283;54.816;9.482;2023-06-14T10:18:42;5.10;;;3.88;;
69956;SDS011;57283;54.816;9.482;2023-06-14T10:21:13;5.57;;;4.17;;
69956;SDS011;57283;54.816;9.482;2023-06-14T10:23:41;6.30;;;3.70;;
69956;SDS011;57283;54.816;9.482;2023-06-14T10:26:13;5.80;;;4.00;;
69956;SDS011;57283;54.816;9.482;2023-06-14T10:28:46;6.90;;;4.07;;
69956;SDS011;57283;54.816;9.482;2023-06-14T10:31:22;5.00;;;3.80;;
69956;SDS011;57283;54.816;9.482;2023-06-14T10:33:50;7.10;;;4.28;;
69956;SDS011;57283;54.816;9.482;2023-06-14T10:36:26;6.15;;;3.90;;
69956;SDS011;57283;54.816;9.482;2023-06-14T10:38:57;6.82;;;4.30;;
69956;SDS011;57283;54.816;9.482;2023-06-14T10:41:26;5.47;;;4.20;;
69956;SDS011;57283;54.816;9.482;2023-06-14T10:46:38;7.37;;;3.87;;
69956;SDS011;57283;54.816;9.482;2023-06-14T10:49:09;6.83;;;3.90;;
69956;SDS011;57283;54.816;9.482;2023-06-14T10:51:38;6.97;;;3.63;;
69956;SDS011;57283;54.816;9.482;2023-06-14T10:54:11;6.65;;;3.63;;
69956;SDS011;57283;54.816;9.482;2023-06-14T10:56:45;7.45;;;3.85;;
69956;SDS011;57283;54.816;9.482;2023-06-14T10:59:13;5.70;;;3.97;;
69956;SDS011;57283;54.816;9.482;2023-06-14T11:01:45;5.10;;;3.95;;
69956;SDS011;57283;54.816;9.482;2023-06-14T11:04:20;6.80;;;3.78;;
69956;SDS011;57283;54.816;9.482;2023-06-14T11:06:48;5.93;;;3.40;;
69956;SDS011;57283;54.816;9.482;2023-06-14T11:12:00;7.70;;;3.80;;
69956;SDS011;57283;54.816;9.482;2023-06-14T11:14:29;6.13;;;4.15;;
69956;SDS011;57283;54.816;9.482;2023-06-14T11:16:58;5.25;;;3.30;;
69956;SDS011;57283;54.816;9.482;2023-06-14T11:19:26;5.93;;;3.75;;
69956;SDS011;57283;54.816;9.482;2023-06-14T11:21:55;5.33;;;3.57;;
69956;SDS011;57283;54.816;9.482;2023-06-14T11:24:22;4.40;;;3.60;;
69956;SDS011;57283;54.816;9.482;2023-06-14T11:26:50;5.82;;;3.45;;
69956;SDS011;57283;54.816;9.482;2023-06-14T11:29:19;4.80;;;3.75;;
69956;SDS011;57283;54.816;9.482;2023-06-14T11:31:48;5.50;;;4.00;;
69956;SDS011;57283;54.816;9.482;2023-06-14T11:34:17;4.97;;;3.60;;
69956;SDS011;57283;54.816;9.482;2023-06-14T11:36:44;5.38;;;3.63;;
69956;SDS011;57283;54.816;9.482;2023-06-14T11:39:13;7.37;;;3.80;;
69956;SDS011;57283;54.816;9.482;2023-06-14T11:41:42;5.38;;;3.25;;
69956;SDS011;57283;54.816;9.482;2023-06-14T11:44:10;6.72;;;3.90;;
69956;SDS011;57283;54.816;9.482;2023-06-14T11:46:38;5.43;;;3.40;;
69956;SDS011;57283;54.816;9.482;2023-06-14T11:49:06;6.47;;;3.50;;
69956;SDS011;57283;54.816;9.482;2023-06-14T11:51:37;4.43;;;3.20;;
69956;SDS011;57283;54.816;9.482;2023-06-14T11:54:05;7.37;;;3.23;;
69956;SDS011;57283;54.816;9.482;2023-06-14T11:56:33;7.03;;;3.60;;
69956;SDS011;57283;54.816;9.482;2023-06-14T11:59:02;8.90;;;4.10;;
69956;SDS011;57283;54.816;9.482;2023-06-14T12:01:32;6.30;;;3.60;;
69956;SDS011;57283;54.816;9.482;2023-06-14T12:04:03;5.65;;;3.65;;
69956;SDS011;57283;54.816;9.482;2023-06-14T12:06:31;7.17;;;3.60;;
69956;SDS011;57283;54.816;9.482;2023-06-14T12:09:08;7.60;;;3.37;;
69956;SDS011;57283;54.816;9.482;2023-06-14T12:11:40;5.53;;;3.50;;
69956;SDS011;57283;54.816;9.482;2023-06-14T12:14:08;5.35;;;3.38;;
69956;SDS011;57283;54.816;9.482;2023-06-14T12:16:36;5.05;;;3.30;;
69956;SDS011;57283;54.816;9.482;2023-06-14T12:19:08;5.22;;;3.35;;
69956;SDS011;57283;54.816;9.482;2023-06-14T12:21:38;5.53;;;3.50;;
69956;SDS011;57283;54.816;9.482;2023-06-14T12:24:08;5.00;;;3.23;;
69956;SDS011;57283;54.816;9.482;2023-06-14T12:26:39;6.68;;;3.22;;
69956;SDS011;57283;54.816;9.482;2023-06-14T12:29:07;5.97;;;3.42;;
69956;SDS011;57283;54.816;9.482;2023-06-14T12:31:35;6.28;;;3.45;;
69956;SDS011;57283;54.816;9.482;2023-06-14T12:34:02;5.72;;;3.47;;
69956;SDS011;57283;54.816;9.482;2023-06-14T12:36:30;5.80;;;3.50;;
69956;SDS011;57283;54.816;9.482;2023-06-14T12:38:58;4.67;;;3.00;;
69956;SDS011;57283;54.816;9.482;2023-06-14T12:41:27;5.22;;;3.40;;
69956;SDS011;57283;54.816;9.482;2023-06-14T12:43:55;6.90;;;3.72;;
69956;SDS011;57283;54.816;9.482;2023-06-14T12:46:24;5.88;;;3.50;;
69956;SDS011;57283;54.816;9.482;2023-06-14T12:48:52;5.30;;;3.50;;
69956;SDS011;57283;54.816;9.482;2023-06-14T12:51:19;6.27;;;3.70;;
69956;SDS011;57283;54.816;9.482;2023-06-14T12:53:47;6.07;;;3.15;;
69956;SDS011;57283;54.816;9.482;2023-06-14T12:56:15;6.10;;;3.22;;
69956;SDS011;57283;54.816;9.482;2023-06-14T12:58:44;5.68;;;3.15;;
69956;SDS011;57283;54.816;9.482;2023-06-14T13:01:12;5.90;;;3.30;;
69956;SDS011;57283;54.816;9.482;2023-06-14T13:03:39;5.43;;;2.77;;
69956;SDS011;57283;54.816;9.482;2023-06-14T13:06:07;6.03;;;3.00;;
69956;SDS011;57283;54.816;9.482;2023-06-14T13:08:35;5.70;;;3.20;;
69956;SDS011;57283;54.816;9.482;2023-06-14T13:11:02;7.15;;;3.20;;
69956;SDS011;57283;54.816;9.482;2023-06-14T13:13:30;5.35;;;3.28;;
69956;SDS011;57283;54.816;9.482;2023-06-14T13:16:03;5.17;;;3.00;;
69956;SDS011;57283;54.816;9.482;2023-06-14T13:18:30;6.80;;;3.20;;
69956;SDS011;57283;54.816;9.482;2023-06-14T13:20:58;5.28;;;3.08;;
69956;SDS011;57283;54.816;9.482;2023-06-14T13:23:26;6.53;;;3.20;;
69956;SDS011;57283;54.816;9.482;2023-06-14T13:25:53;6.00;;;3.40;;
69956;SDS011;57283;54.816;9.482;2023-06-14T13:28:21;6.67;;;3.13;;
69956;SDS011;57283;54.816;9.482;2023-06-14T13:30:48;5.95;;;3.50;;
69956;SDS011;57283;54.816;9.482;2023-06-14T13:33:17;4.70;;;3.03;;
69956;SDS011;57283;54.816;9.482;2023-06-14T13:35:45;4.93;;;3.05;;
69956;SDS011;57283;54.816;9.482;2023-06-14T13:38:13;6.38;;;3.33;;
69956;SDS011;57283;54.816;9.482;2023-06-14T13:40:41;5.40;;;3.00;;
69956;SDS011;57283;54.816;9.482;2023-06-14T13:43:08;4.97;;;3.13;;
69956;SDS011;57283;54.816;9.482;2023-06-14T13:45:36;4.75;;;3.17;;
69956;SDS011;57283;54.816;9.482;2023-06-14T13:48:22;6.07;;;3.30;;
69956;SDS011;57283;54.816;9.482;2023-06-14T13:51:08;7.95;;;3.00;;
69956;SDS011;57283;54.816;9.482;2023-06-14T13:53:53;4.80;;;3.07;;
69956;SDS011;57283;54.816;9.482;2023-06-14T13:56:39;6.28;;;3.47;;
69956;SDS011;57283;54.816;9.482;2023-06-14T13:59:24;5.30;;;2.72;;
69956;SDS011;57283;54.816;9.482;2023-06-14T14:02:09;6.65;;;3.03;;
69956;SDS011;57283;54.816;9.482;2023-06-14T14:04:56;6.07;;;2.78;;
69956;SDS011;57283;54.816;9.482;2023-06-14T14:07:41;5.70;;;2.80;;
69956;SDS011;57283;54.816;9.482;2023-06-14T14:10:26;6.05;;;3.25;;
69956;SDS011;57283;54.816;9.482;2023-06-14T14:13:11;4.60;;;2.90;;
69956;SDS011;57283;54.816;9.482;2023-06-14T14:15:57;4.93;;;2.80;;
69956;SDS011;57283;54.816;9.482;2023-06-14T14:18:42;5.10;;;2.83;;
69956;SDS011;57283;54.816;9.482;2023-06-14T14:21:29;5.07;;;2.70;;
69956;SDS011;57283;54.816;9.482;2023-06-14T14:24:14;5.10;;;2.70;;
69956;SDS011;57283;54.816;9.482;2023-06-14T14:26:59;5.43;;;3.05;;
69956;SDS011;57283;54.816;9.482;2023-06-14T14:29:44;5.82;;;3.08;;
69956;SDS011;57283;54.816;9.482;2023-06-14T14:32:12;6.38;;;3.47;;
69956;SDS011;57283;54.816;9.482;2023-06-14T14:34:40;4.67;;;2.60;;
69956;SDS011;57283;54.816;9.482;2023-06-14T14:37:09;4.40;;;2.70;;
69956;SDS011;57283;54.816;9.482;2023-06-14T14:39:37;5.07;;;3.10;;
69956;SDS011;57283;54.816;9.482;2023-06-14T14:42:05;5.65;;;2.55;;
69956;SDS011;57283;54.816;9.482;2023-06-14T14:44:34;4.90;;;3.50;;
69956;SDS011;57283;54.816;9.482;2023-06-14T14:47:02;4.77;;;2.77;;
69956;SDS011;57283;54.816;9.482;2023-06-14T14:49:30;5.72;;;2.50;;
69956;SDS011;57283;54.816;9.482;2023-06-14T14:51:57;5.18;;;2.80;;
69956;SDS011;57283;54.816;9.482;2023-06-14T14:54:45;4.90;;;2.90;;
69956;SDS011;57283;54.816;9.482;2023-06-14T14:57:13;7.30;;;3.30;;
69956;SDS011;57283;54.816;9.482;2023-06-14T14:59:40;5.37;;;2.87;;
69956;SDS011;57283;54.816;9.482;2023-06-14T15:02:08;6.03;;;2.88;;
69956;SDS011;57283;54.816;9.482;2023-06-14T15:04:36;5.43;;;2.80;;
69956;SDS011;57283;54.816;9.482;2023-06-14T15:07:04;8.23;;;3.00;;